Airfield :
LOGIN :

Register | Disclaimer

   EN    FR    IT 

 










Legend :    VFR   Marginal VFR   IFR   Intensive IFR   Very Intensive IFR
Visi :
Ceiling :
>= 8 km
>= 3000ft
5 to 8 km
1000 to 3000 ft
1500m to 5 km
500 to 1000 ft
800 to 1500m
200 to 500 ft
< 800m
< 200 ft
Symbols :   Thunderstorms  Fog  Heavy snow  Heavy precipitations  Wind > 20 kt
SIGMETs :     Misc.  Thunderstorms  Icing  Turbulence  Mountain Waves  Volcanic Ashes






- Airport Elevation : 177 ft
- IATA code : BRI


LIBD - Palese Macchie Bari

CURRENT METAR :
  • 092350Z AUTO 26008KT 9999 NCD 10/M03 Q1021

EXPIRED METARs :
  • 092320Z AUTO 25004KT 9999 NCD 06/00 Q1021
  • 092250Z AUTO 26006KT 9999 NCD 08/M00 Q1021
  • 092220Z AUTO 26005KT 9999 NCD 07/01 Q1021
  • 092150Z AUTO 25002KT 9999 NCD 07/01 Q1021

TAF TAF LIBD
Valid from the 10 at 00:00 until the 11 at 00:00 UTC


092300Z 1000/1024 24006KT CAVOK
BECMG 1008/1010 01012KT
BECMG 1018/1020 25006KT



MET'MAP, your aeronautical weather chart ! - Copyright ORBIFLY December 2007 - Disclaimer

ORBIFLY MET'MAP TEAM :

Programming & Development : Alexandra Zaïnal
Concept & original design : Baudouin d'Aumeries
Assistance for programming : Marc-Olivier Méhu
Technical & hardware support : Manuel Goepfert

Contact : metmap@orbifly.com




SOURCES & CREDITS :

   NOAA